Seagoville's Hourly Summary for Wednesday, July 4, 2018
Hour Temp
(f)
RH
(%)
Solar Rad.
(MJ/m2)
Rainfall
(in)
Wind
(mph)
7/4/2018 12:00 AM 76 76 0 0 0.36
7/4/2018 1:00 AM 75 77 0 0 0.43
7/4/2018 2:00 AM 74 83 0 0 0.65
7/4/2018 3:00 AM 74 83 0 0 0
7/4/2018 4:00 AM 74 83 0 0 0.44
7/4/2018 5:00 AM 74 85 0 0 0.03
7/4/2018 6:00 AM 73 86 0.05 0 0.37
7/4/2018 7:00 AM 76 73 0.45 0 2.15
7/4/2018 8:00 AM 80 64 1.07 0 2.48
7/4/2018 9:00 AM 82 64 1.73 0 4.44
7/4/2018 10:00 AM 83 63 2.23 0 5.78
7/4/2018 11:00 AM 84 62 1.93 0 6.9
7/4/2018 12:00 PM 85 57 2.08 0 8.73
7/4/2018 1:00 PM 84 56 1.39 0 8.43
7/4/2018 2:00 PM 86 52 2.3 0 11.76
7/4/2018 3:00 PM 89 47 2.51 0 12.49
7/4/2018 4:00 PM 89 46 1.94 0 13.09
7/4/2018 5:00 PM 87 49 0.9 0 10.19
7/4/2018 6:00 PM 86 51 0.86 0 12.86
7/4/2018 7:00 PM 86 55 0.48 0 10.73
7/4/2018 8:00 PM 83 57 0.04 0 6.62
7/4/2018 9:00 PM 80 64 0 0 5.7
7/4/2018 10:00 PM 78 70 0 0 6.37
7/4/2018 11:00 PM 76 73 0 0 2.8
Data Summary 80 65 19.96 0.00 5.58